createdAt,value
2019-04-11T00:00:41.753Z,0.00
2019-04-11T00:01:46.320Z,0.00
2019-04-11T00:02:41.772Z,0.00
2019-04-11T00:03:41.766Z,0.00
2019-04-11T00:04:41.980Z,0.00
2019-04-11T00:05:41.266Z,0.00
2019-04-11T00:06:41.432Z,0.00
2019-04-11T00:07:40.738Z,0.00
2019-04-11T00:08:41.701Z,0.00
2019-04-11T00:09:40.889Z,0.00
2019-04-11T00:10:41.642Z,0.00
2019-04-11T00:11:40.676Z,0.00
2019-04-11T00:12:40.966Z,0.00
2019-04-11T00:13:41.139Z,0.00
2019-04-11T00:14:40.662Z,0.00
2019-04-11T00:15:40.625Z,0.00
2019-04-11T00:16:41.540Z,0.00
2019-04-11T00:17:41.745Z,0.00
2019-04-11T00:18:41.026Z,0.00
2019-04-11T00:19:40.585Z,0.00
2019-04-11T00:20:40.602Z,0.00
2019-04-11T00:21:41.296Z,0.00
2019-04-11T00:22:41.519Z,0.00
2019-04-11T00:23:40.610Z,0.00
2019-04-11T00:24:40.527Z,0.00
2019-04-11T00:25:40.542Z,0.00
2019-04-11T00:26:40.540Z,0.00
2019-04-11T00:27:41.333Z,0.00
2019-04-11T00:28:41.588Z,0.00
2019-04-11T00:29:40.757Z,0.00
2019-04-11T00:30:40.464Z,0.00
2019-04-11T00:31:41.114Z,0.00
2019-04-11T00:32:41.412Z,0.00
2019-04-11T00:33:40.479Z,0.00
2019-04-11T00:34:40.414Z,0.00
2019-04-11T00:35:40.408Z,0.00
2019-04-11T00:36:40.816Z,0.00
2019-04-11T00:37:41.235Z,0.00
2019-04-11T00:38:40.388Z,0.00
2019-04-11T00:39:40.650Z,0.00
2019-04-11T00:40:41.518Z,0.00
2019-04-11T00:41:40.364Z,0.00
2019-04-11T00:42:40.927Z,0.00
2019-04-11T00:43:42.121Z,0.00
2019-04-11T00:44:41.153Z,0.00
2019-04-11T00:45:40.308Z,0.00
2019-04-11T00:46:40.512Z,0.00
2019-04-11T00:47:41.478Z,0.00
2019-04-11T00:48:40.264Z,0.00
2019-04-11T00:49:40.820Z,0.00
2019-04-11T00:50:40.272Z,0.00
2019-04-11T00:51:40.261Z,0.00
2019-04-11T00:52:41.231Z,0.00
2019-04-11T00:53:40.388Z,0.00
2019-04-11T00:54:40.711Z,0.00
2019-04-11T00:55:40.187Z,0.00
2019-04-11T00:56:40.198Z,0.00
2019-04-11T00:57:41.139Z,0.00
2019-04-11T00:58:40.169Z,0.00
2019-04-11T00:59:40.601Z,0.00
2019-04-11T01:00:40.161Z,0.00
2019-04-11T01:01:40.897Z,0.00
2019-04-11T01:02:41.723Z,0.00
2019-04-11T01:03:40.111Z,0.00
2019-04-11T01:04:41.145Z,0.00
2019-04-11T01:05:40.088Z,0.00
2019-04-11T01:06:40.566Z,0.00
2019-04-11T01:07:40.909Z,0.00
2019-04-11T01:08:40.045Z,0.00
2019-04-11T01:09:40.266Z,0.00
2019-04-11T01:10:40.032Z,0.00
2019-04-11T01:11:40.366Z,0.00
2019-04-11T01:12:40.773Z,0.00
2019-04-11T01:13:47.712Z,0.00
2019-04-11T01:14:41.039Z,0.00
2019-04-11T01:15:40.811Z,0.00
2019-04-11T01:16:40.968Z,0.00
2019-04-11T01:17:39.962Z,0.00
2019-04-11T01:18:40.349Z,0.00
2019-04-11T01:19:40.716Z,0.00
2019-04-11T01:20:39.911Z,0.00
2019-04-11T01:21:40.386Z,0.00
2019-04-11T01:22:40.517Z,0.00
2019-04-11T01:23:39.913Z,0.00
2019-04-11T01:24:39.970Z,0.00
2019-04-11T01:25:40.937Z,0.00
2019-04-11T01:26:39.851Z,0.00
2019-04-11T01:27:41.093Z,0.00
2019-04-11T01:28:39.867Z,0.00
2019-04-11T01:29:39.874Z,0.00
2019-04-11T01:30:40.825Z,0.00
2019-04-11T01:31:39.968Z,0.00
2019-04-11T01:32:40.268Z,0.00
2019-04-11T01:33:40.154Z,0.00
2019-04-11T01:34:40.427Z,0.00
2019-04-11T01:35:39.781Z,0.00
2019-04-11T01:36:39.745Z,0.00
2019-04-11T01:37:39.865Z,0.00
2019-04-11T01:38:40.786Z,0.00
2019-04-11T01:39:39.751Z,0.00
2019-04-11T01:40:40.126Z,0.00
2019-04-11T01:41:39.692Z,0.00
2019-04-11T01:42:39.752Z,0.00
2019-04-11T01:43:41.041Z,0.00
2019-04-11T01:44:40.990Z,0.00
2019-04-11T01:45:39.650Z,0.00
2019-04-11T01:46:40.293Z,0.00
2019-04-11T01:47:39.630Z,0.00
2019-04-11T01:48:39.685Z,0.00
2019-04-11T01:49:40.610Z,0.00
2019-04-11T01:50:39.617Z,0.00
2019-04-11T01:51:40.104Z,0.00
2019-04-11T01:52:39.575Z,0.00
2019-04-11T01:53:40.983Z,0.00
2019-04-11T01:54:39.624Z,0.00
2019-04-11T01:55:40.624Z,0.00
2019-04-11T01:56:39.559Z,0.00
2019-04-11T01:57:40.266Z,0.00
2019-04-11T01:58:40.547Z,0.00
2019-04-11T01:59:39.652Z,0.00
2019-04-11T02:00:39.906Z,0.00
2019-04-11T02:01:39.474Z,0.00
2019-04-11T02:02:39.474Z,0.00
2019-04-11T02:03:39.469Z,0.00
2019-04-11T02:04:40.373Z,0.00
2019-04-11T02:05:39.436Z,0.00
2019-04-11T02:06:40.323Z,0.00
2019-04-11T02:07:39.637Z,0.00
2019-04-11T02:08:39.682Z,0.00
2019-04-11T02:09:40.077Z,0.00
2019-04-11T02:10:39.381Z,0.00
2019-04-11T02:11:39.499Z,0.00
2019-04-11T02:12:39.432Z,0.00
2019-04-11T02:13:39.685Z,0.00
2019-04-11T02:14:39.663Z,0.00
2019-04-11T02:15:39.328Z,0.00
2019-04-11T02:16:39.310Z,0.00
2019-04-11T02:17:39.311Z,0.00
2019-04-11T02:18:39.425Z,0.00
2019-04-11T02:19:40.476Z,0.00
2019-04-11T02:20:39.282Z,0.00
2019-04-11T02:21:40.056Z,0.00
2019-04-11T02:22:40.340Z,0.00
2019-04-11T02:23:39.433Z,0.00
2019-04-11T02:24:39.685Z,0.00
2019-04-11T02:25:39.209Z,0.00
2019-04-11T02:26:39.205Z,0.00
2019-04-11T02:27:40.177Z,0.00
2019-04-11T02:28:39.183Z,0.00
2019-04-11T02:29:39.209Z,0.00
2019-04-11T02:30:41.055Z,0.00
2019-04-11T02:31:39.162Z,0.00
2019-04-11T02:32:40.406Z,0.00
2019-04-11T02:33:39.118Z,0.00
2019-04-11T02:34:39.727Z,0.00
2019-04-11T02:35:40.008Z,0.00
2019-04-11T02:36:40.493Z,0.00
2019-04-11T02:37:39.920Z,0.00
2019-04-11T02:38:41.043Z,0.00
2019-04-11T02:39:40.805Z,0.00
2019-04-11T02:40:40.900Z,0.00
2019-04-11T02:41:39.838Z,0.00
2019-04-11T02:42:39.044Z,0.00
2019-04-11T02:43:42.131Z,0.00
2019-04-11T02:44:55.988Z,0.00
2019-04-11T02:45:54.481Z,0.00
2019-04-11T02:46:44.872Z,0.00
2019-04-11T02:47:43.604Z,0.00
2019-04-11T02:48:40.669Z,0.00
2019-04-11T02:49:39.337Z,0.00
2019-04-11T02:50:40.999Z,0.00
2019-04-11T02:51:39.238Z,0.00
2019-04-11T02:52:40.139Z,0.00
2019-04-11T02:53:39.035Z,0.00
2019-04-11T02:54:38.969Z,0.00
2019-04-11T02:55:38.907Z,0.00
2019-04-11T02:56:40.473Z,0.00
2019-04-11T02:57:40.637Z,0.00
2019-04-11T02:58:39.715Z,0.00
2019-04-11T02:59:39.112Z,0.00
2019-04-11T03:00:40.184Z,0.00
2019-04-11T03:01:39.907Z,0.00
2019-04-11T03:02:39.515Z,0.00
2019-04-11T03:03:39.496Z,0.00
2019-04-11T03:04:39.331Z,0.00
2019-04-11T03:05:39.438Z,0.00
2019-04-11T03:06:39.665Z,0.00
2019-04-11T03:07:40.112Z,0.00
2019-04-11T03:08:40.390Z,0.00
2019-04-11T03:09:39.311Z,0.00
2019-04-11T03:10:38.769Z,0.00
2019-04-11T03:11:38.808Z,0.00
2019-04-11T03:12:40.363Z,0.00
2019-04-11T03:13:38.721Z,0.00
2019-04-11T03:15:02.280Z,0.00
2019-04-11T03:15:54.411Z,0.00
2019-04-11T03:16:53.384Z,0.00
2019-04-11T03:17:43.248Z,0.00
2019-04-11T03:18:54.699Z,0.00
2019-04-11T03:19:53.618Z,0.00
2019-04-11T03:20:45.663Z,0.00
2019-04-11T03:21:43.637Z,0.00
2019-04-11T03:22:40.627Z,0.00
2019-04-11T03:23:39.768Z,0.00
2019-04-11T03:24:39.272Z,0.00
2019-04-11T03:25:38.720Z,0.00
2019-04-11T03:26:38.544Z,0.00
2019-04-11T03:27:38.584Z,0.00
2019-04-11T03:28:40.739Z,0.00
2019-04-11T03:29:38.527Z,0.00
2019-04-11T03:30:59.142Z,0.00
2019-04-11T03:32:18.054Z,0.00
2019-04-11T03:34:40.192Z,0.00
2019-04-11T03:38:00.047Z,0.00
2019-04-11T03:39:00.267Z,0.00
2019-04-11T03:40:02.415Z,0.00
2019-04-11T03:40:57.901Z,0.00
2019-04-11T03:41:56.601Z,0.00
2019-04-11T03:42:57.034Z,0.00
2019-04-11T03:43:53.040Z,0.00
2019-04-11T03:44:44.978Z,4.00
2019-04-11T03:46:01.320Z,4.00
2019-04-11T03:46:55.741Z,0.00
2019-04-11T03:47:54.737Z,4.00
2019-04-11T03:48:51.165Z,4.00
2019-04-11T03:49:46.698Z,4.00
2019-04-11T03:50:39.969Z,4.00
2019-04-11T03:51:40.435Z,8.00
2019-04-11T03:52:38.269Z,8.00
2019-04-11T03:53:38.298Z,8.00
2019-04-11T03:54:38.909Z,8.00
2019-04-11T03:55:39.063Z,12.00
2019-04-11T03:56:38.972Z,12.00
2019-04-11T03:57:39.377Z,12.00
2019-04-11T03:58:39.708Z,16.00
2019-04-11T03:59:39.099Z,20.00
2019-04-11T04:00:42.515Z,20.00
2019-04-11T04:01:39.903Z,28.00
2019-04-11T04:02:39.123Z,32.00
2019-04-11T04:03:39.251Z,36.00
2019-04-11T04:04:39.264Z,44.00
2019-04-11T04:05:39.080Z,52.00
2019-04-11T04:06:39.389Z,56.00
2019-04-11T04:07:38.323Z,68.00
2019-04-11T04:08:38.730Z,76.00
2019-04-11T04:09:39.626Z,84.00
2019-04-11T04:10:39.372Z,96.00
2019-04-11T04:11:38.412Z,108.00
2019-04-11T04:12:40.077Z,124.00
2019-04-11T04:13:38.942Z,140.00
2019-04-11T04:14:39.150Z,156.00
2019-04-11T04:15:51.552Z,168.00
2019-04-11T04:16:45.698Z,192.00
2019-04-11T04:17:39.338Z,212.00
2019-04-11T04:18:38.209Z,232.00
2019-04-11T04:19:39.636Z,256.00
2019-04-11T04:20:39.464Z,280.00
2019-04-11T04:21:38.795Z,304.00
2019-04-11T04:22:39.645Z,340.00
2019-04-11T04:23:38.137Z,372.00
2019-04-11T04:24:40.442Z,404.00
2019-04-11T04:25:39.188Z,436.00
2019-04-11T04:26:39.115Z,468.00
2019-04-11T04:27:38.782Z,508.00
2019-04-11T04:28:38.697Z,548.00
2019-04-11T04:29:38.180Z,588.00
2019-04-11T04:30:38.910Z,632.00
2019-04-11T04:31:38.529Z,684.00
2019-04-11T04:32:38.655Z,740.00
2019-04-11T04:33:39.925Z,792.00
2019-04-11T04:34:37.822Z,844.00
2019-04-11T04:35:38.605Z,892.00
2019-04-11T04:36:37.926Z,940.00
2019-04-11T04:37:38.803Z,996.00
2019-04-11T04:38:39.588Z,1048.00
2019-04-11T04:39:39.765Z,1108.00
2019-04-11T04:40:50.921Z,1172.00
2019-04-11T04:41:47.062Z,1232.00
2019-04-11T04:42:44.449Z,1304.00
2019-04-11T04:43:38.862Z,1380.00
2019-04-11T04:44:38.051Z,1476.00
2019-04-11T04:45:58.138Z,1580.00
2019-04-11T04:46:52.628Z,1672.00
2019-04-11T04:47:46.626Z,1760.00
2019-04-11T04:48:40.989Z,1832.00
2019-04-11T04:49:38.847Z,1920.00
2019-04-11T04:50:39.209Z,2024.00
2019-04-11T04:51:39.030Z,2140.00
2019-04-11T04:52:38.184Z,2252.00
2019-04-11T04:53:39.046Z,2332.00
2019-04-11T04:54:38.601Z,2392.00
2019-04-11T04:55:37.677Z,2468.00
2019-04-11T04:56:39.781Z,2536.00
2019-04-11T04:57:37.825Z,2628.00
2019-04-11T04:58:37.926Z,2776.00
2019-04-11T04:59:39.565Z,2892.00
2019-04-11T05:00:37.747Z,2900.00
2019-04-11T05:01:39.175Z,2956.00
2019-04-11T05:02:37.595Z,3024.00
2019-04-11T05:03:37.952Z,3096.00
2019-04-11T05:04:38.418Z,3192.00
2019-04-11T05:05:38.258Z,3324.00
2019-04-11T05:06:38.766Z,3576.00
2019-04-11T05:07:40.211Z,4068.00
2019-04-11T05:08:38.903Z,4416.00
2019-04-11T05:09:38.382Z,4492.00
2019-04-11T05:10:38.170Z,4532.00
2019-04-11T05:11:38.225Z,4448.00
2019-04-11T05:12:38.781Z,4452.00
2019-04-11T05:13:38.812Z,4536.00
2019-04-11T05:14:37.448Z,4380.00
2019-04-11T05:15:38.431Z,4160.00
2019-04-11T05:16:37.609Z,4204.00
2019-04-11T05:17:38.667Z,4412.00
2019-04-11T05:18:37.375Z,4460.00
2019-04-11T05:19:38.347Z,4464.00
2019-04-11T05:20:38.542Z,4632.00
2019-04-11T05:21:37.314Z,4952.00
2019-04-11T05:22:37.309Z,5264.00
2019-04-11T05:23:37.448Z,5512.00
2019-04-11T05:24:37.287Z,6180.00
2019-04-11T05:25:37.284Z,7176.00
2019-04-11T05:26:37.280Z,8100.00
2019-04-11T05:27:37.866Z,8064.00
2019-04-11T05:28:37.431Z,8180.00
2019-04-11T05:29:37.614Z,8512.00
2019-04-11T05:30:37.214Z,8824.00
2019-04-11T05:31:37.202Z,9116.00
2019-04-11T05:32:37.541Z,9344.00
2019-04-11T05:33:37.181Z,9792.00
2019-04-11T05:34:37.219Z,10276.00
2019-04-11T05:35:37.164Z,10316.00
2019-04-11T05:36:37.149Z,10536.00
2019-04-11T05:37:37.788Z,10896.00
2019-04-11T05:38:37.976Z,11140.00
2019-04-11T05:39:38.063Z,11312.00
2019-04-11T05:40:37.719Z,11388.00
2019-04-11T05:41:37.649Z,11476.00
2019-04-11T05:42:37.706Z,11880.00
2019-04-11T05:43:39.823Z,12332.00
2019-04-11T05:44:38.298Z,12768.00
2019-04-11T05:45:38.090Z,12700.00
2019-04-11T05:46:49.311Z,13344.00
2019-04-11T05:47:39.238Z,14368.00
2019-04-11T05:48:37.012Z,14528.00
2019-04-11T05:49:40.371Z,14208.00
2019-04-11T05:50:37.048Z,14304.00
2019-04-11T05:51:42.621Z,14624.00
2019-04-11T05:52:37.986Z,14880.00
2019-04-11T05:53:38.361Z,15776.00
2019-04-11T05:54:41.198Z,16160.00
2019-04-11T05:55:41.563Z,16096.00
2019-04-11T05:56:37.924Z,16160.00
2019-04-11T05:57:38.415Z,15936.00
2019-04-11T05:58:36.900Z,16000.00
2019-04-11T05:59:36.999Z,15232.00
2019-04-11T06:00:38.057Z,14784.00
2019-04-11T06:01:36.880Z,14624.00
2019-04-11T06:02:37.436Z,14528.00
2019-04-11T06:03:39.955Z,13520.00
2019-04-11T06:04:38.390Z,13348.00
2019-04-11T06:05:37.890Z,16160.00
2019-04-11T06:06:39.800Z,16800.00
2019-04-11T06:07:40.041Z,13432.00
2019-04-11T06:08:37.872Z,9920.00
2019-04-11T06:09:38.917Z,8772.00
2019-04-11T06:10:41.307Z,8820.00
2019-04-11T06:11:39.037Z,8940.00
2019-04-11T06:12:37.848Z,9108.00
2019-04-11T06:13:36.739Z,9184.00
2019-04-11T06:14:37.541Z,9308.00
2019-04-11T06:15:39.682Z,9552.00
2019-04-11T06:16:44.912Z,10068.00
2019-04-11T06:17:38.501Z,10716.00
2019-04-11T06:18:39.632Z,11444.00
2019-04-11T06:19:37.659Z,14084.00
2019-04-11T06:20:37.585Z,18112.00
2019-04-11T06:21:36.665Z,25088.00
2019-04-11T06:22:36.638Z,25184.00
2019-04-11T06:23:37.173Z,24832.00
2019-04-11T06:24:36.629Z,24960.00
2019-04-11T06:25:39.072Z,25920.00
2019-04-11T06:26:38.634Z,26880.00
2019-04-11T06:27:38.366Z,27360.00
2019-04-11T06:28:36.578Z,26656.00
2019-04-11T06:29:36.973Z,27008.00
2019-04-11T06:30:36.744Z,26048.00
2019-04-11T06:31:36.554Z,26912.00
2019-04-11T06:32:37.361Z,30592.00
2019-04-11T06:33:36.591Z,32224.00
2019-04-11T06:34:37.551Z,32000.00
2019-04-11T06:35:36.511Z,31584.00
2019-04-11T06:36:36.999Z,30752.00
2019-04-11T06:37:36.479Z,33952.00
2019-04-11T06:38:36.533Z,35808.00
2019-04-11T06:39:37.595Z,35520.00
2019-04-11T06:40:36.691Z,35328.00
2019-04-11T06:41:36.870Z,35360.00
2019-04-11T06:42:37.269Z,35328.00
2019-04-11T06:43:36.419Z,26816.00
2019-04-11T06:44:37.549Z,29760.00
2019-04-11T06:45:37.443Z,35712.00
2019-04-11T06:46:47.574Z,29568.00
2019-04-11T06:47:37.375Z,36960.00
2019-04-11T06:48:36.356Z,37792.00
2019-04-11T06:49:36.376Z,39904.00
2019-04-11T06:50:37.520Z,38464.00
2019-04-11T06:51:36.355Z,39104.00
2019-04-11T06:52:36.978Z,27072.00
2019-04-11T06:53:36.495Z,30688.00
2019-04-11T06:54:37.148Z,25568.00
2019-04-11T06:55:37.048Z,34016.00
2019-04-11T06:56:36.920Z,40768.00
2019-04-11T06:57:36.355Z,41440.00
2019-04-11T06:58:37.293Z,29824.00
2019-04-11T06:59:36.535Z,36224.00
2019-04-11T07:00:36.958Z,34432.00
2019-04-11T07:01:36.270Z,36096.00
2019-04-11T07:02:36.902Z,37440.00
2019-04-11T07:03:36.336Z,40512.00
2019-04-11T07:04:36.159Z,40000.00
2019-04-11T07:05:36.162Z,48864.00
2019-04-11T07:06:36.150Z,40032.00
2019-04-11T07:07:36.567Z,43552.00
2019-04-11T07:08:36.396Z,42816.00
2019-04-11T07:09:37.098Z,33760.00
2019-04-11T07:10:36.321Z,31712.00
2019-04-11T07:11:36.305Z,41760.00
2019-04-11T07:12:36.108Z,47936.00
2019-04-11T07:13:37.191Z,49312.00
2019-04-11T07:14:36.066Z,26304.00
2019-04-11T07:15:36.051Z,51712.00
2019-04-11T07:16:36.294Z,54912.00
2019-04-11T07:17:37.038Z,40352.00
2019-04-11T07:18:36.052Z,47552.00
2019-04-11T07:19:37.227Z,50592.00
2019-04-11T07:20:35.998Z,46176.00
2019-04-11T07:21:35.968Z,47360.00
2019-04-11T07:22:36.840Z,49952.00
2019-04-11T07:23:36.457Z,54592.00
2019-04-11T07:24:36.799Z,32608.00
2019-04-11T07:25:35.948Z,21280.00
2019-04-11T07:26:37.168Z,20448.00
2019-04-11T07:27:36.641Z,19808.00
2019-04-11T07:28:35.926Z,19936.00
2019-04-11T07:29:35.910Z,19232.00
2019-04-11T07:30:35.882Z,20384.00
2019-04-11T07:31:35.886Z,20256.00
2019-04-11T07:32:36.503Z,20000.00
2019-04-11T07:33:35.914Z,20160.00
2019-04-11T07:34:37.731Z,20640.00
2019-04-11T07:35:35.835Z,20736.00
2019-04-11T07:36:36.116Z,20896.00
2019-04-11T07:37:36.670Z,11120.00
2019-04-11T07:38:36.486Z,20640.00
2019-04-11T07:39:35.811Z,20352.00
2019-04-11T07:40:35.802Z,20224.00
2019-04-11T07:41:35.977Z,21024.00
2019-04-11T07:42:37.333Z,27360.00
2019-04-11T07:43:35.753Z,43296.00
2019-04-11T07:44:35.774Z,54336.00
2019-04-11T07:45:37.680Z,45184.00
2019-04-11T07:46:35.751Z,26304.00
2019-04-11T07:47:35.698Z,23456.00
2019-04-11T07:48:35.939Z,32608.00
2019-04-11T07:49:35.685Z,50368.00
2019-04-11T07:50:35.677Z,61632.00
2019-04-11T07:51:36.452Z,11328.00
2019-04-11T07:52:35.939Z,60928.00
2019-04-11T07:53:35.631Z,20352.00
2019-04-11T07:54:36.835Z,56256.00
2019-04-11T07:55:36.540Z,11060.00
2019-04-11T07:56:35.610Z,65056.00
2019-04-11T07:57:36.198Z,66976.00
2019-04-11T07:58:35.587Z,21792.00
2019-04-11T07:59:35.581Z,72896.00
2019-04-11T08:00:43.451Z,19840.00
2019-04-11T08:01:36.553Z,68768.00
2019-04-11T08:02:35.637Z,31360.00
2019-04-11T08:03:35.676Z,74848.00
2019-04-11T08:04:36.491Z,81120.00
2019-04-11T08:05:36.653Z,66496.00
2019-04-11T08:06:35.507Z,41088.00
2019-04-11T08:07:35.470Z,33088.00
2019-04-11T08:08:36.693Z,31744.00
2019-04-11T08:09:35.799Z,31040.00
2019-04-11T08:10:35.452Z,30592.00
2019-04-11T08:11:35.896Z,28512.00
2019-04-11T08:12:35.429Z,27520.00
2019-04-11T08:13:36.718Z,26592.00
2019-04-11T08:14:35.401Z,27904.00
2019-04-11T08:15:35.615Z,31488.00
2019-04-11T08:16:35.414Z,35264.00
2019-04-11T08:17:40.062Z,35616.00
2019-04-11T08:18:36.898Z,33984.00
2019-04-11T08:19:35.339Z,24352.00
2019-04-11T08:20:35.341Z,18528.00
2019-04-11T08:21:36.070Z,11532.00
2019-04-11T08:22:35.348Z,11432.00
2019-04-11T08:23:36.008Z,12536.00
2019-04-11T08:24:36.475Z,12180.00
2019-04-11T08:25:35.538Z,12584.00
2019-04-11T08:26:35.906Z,12800.00
2019-04-11T08:27:35.763Z,11288.00
2019-04-11T08:28:35.584Z,9736.00
2019-04-11T08:29:36.005Z,8748.00
2019-04-11T08:30:35.238Z,8676.00
2019-04-11T08:31:36.169Z,8516.00
2019-04-11T08:32:36.009Z,10588.00
2019-04-11T08:33:35.214Z,10988.00
2019-04-11T08:34:35.386Z,12156.00
2019-04-11T08:35:35.184Z,11416.00
2019-04-11T08:36:35.161Z,10516.00
2019-04-11T08:37:35.761Z,10012.00
2019-04-11T08:38:36.251Z,9648.00
2019-04-11T08:39:35.317Z,9292.00
2019-04-11T08:40:35.720Z,9180.00
2019-04-11T08:41:35.860Z,9608.00
2019-04-11T08:42:37.254Z,10056.00
2019-04-11T08:43:35.298Z,10292.00
2019-04-11T08:44:36.076Z,10928.00
2019-04-11T08:45:35.053Z,12124.00
2019-04-11T08:46:35.189Z,13104.00
2019-04-11T08:47:44.754Z,36256.00
2019-04-11T08:48:37.131Z,37728.00
2019-04-11T08:49:35.166Z,40128.00
2019-04-11T08:50:34.999Z,42624.00
2019-04-11T08:51:35.724Z,43808.00
2019-04-11T08:52:36.049Z,44448.00
2019-04-11T08:53:35.127Z,45184.00
2019-04-11T08:54:34.957Z,45504.00
2019-04-11T08:55:47.639Z,44384.00
2019-04-11T08:56:36.831Z,15124.00
2019-04-11T08:57:35.998Z,25856.00
2019-04-11T08:58:34.925Z,12440.00
2019-04-11T08:59:35.784Z,11992.00
2019-04-11T09:00:34.893Z,11636.00
2019-04-11T09:01:35.947Z,11996.00
2019-04-11T09:02:35.345Z,12544.00
2019-04-11T09:03:34.865Z,14256.00
2019-04-11T09:04:34.845Z,26048.00
2019-04-11T09:05:35.453Z,25600.00
2019-04-11T09:06:34.832Z,18528.00
2019-04-11T09:07:35.899Z,18944.00
2019-04-11T09:08:34.833Z,44320.00
2019-04-11T09:09:36.269Z,17184.00
2019-04-11T09:10:35.898Z,15208.00
2019-04-11T09:11:37.443Z,14820.00
2019-04-11T09:12:34.750Z,14616.00
2019-04-11T09:13:35.587Z,14788.00
2019-04-11T09:14:35.892Z,14812.00
2019-04-11T09:15:35.133Z,15288.00
2019-04-11T09:16:34.732Z,16832.00
2019-04-11T09:17:34.719Z,17824.00
2019-04-11T09:18:34.689Z,18496.00
2019-04-11T09:19:34.870Z,17920.00
2019-04-11T09:20:35.848Z,16788.00
2019-04-11T09:21:34.660Z,15956.00
2019-04-11T09:22:35.329Z,15288.00
2019-04-11T09:23:35.705Z,15052.00
2019-04-11T09:24:34.704Z,15024.00
2019-04-11T09:25:34.938Z,33344.00
2019-04-11T09:26:34.609Z,44192.00
2019-04-11T09:27:34.595Z,44896.00
2019-04-11T09:28:35.606Z,46624.00
2019-04-11T09:29:34.599Z,48448.00
2019-04-11T09:30:34.675Z,49568.00
2019-04-11T09:31:35.793Z,39488.00
2019-04-11T09:32:34.531Z,36576.00
2019-04-11T09:33:35.118Z,26016.00
2019-04-11T09:34:35.586Z,34304.00
2019-04-11T09:35:35.321Z,17088.00
2019-04-11T09:36:34.495Z,15344.00
2019-04-11T09:37:35.850Z,14028.00
2019-04-11T09:38:34.796Z,13256.00
2019-04-11T09:39:35.064Z,12960.00
2019-04-11T09:40:34.472Z,13208.00
2019-04-11T09:41:34.427Z,13516.00
2019-04-11T09:42:34.640Z,14016.00
2019-04-11T09:43:34.417Z,14512.00
2019-04-11T09:44:34.988Z,14576.00
2019-04-11T09:45:35.387Z,14284.00
2019-04-11T09:46:34.517Z,14260.00
2019-04-11T09:47:34.373Z,14448.00
2019-04-11T09:48:34.653Z,14664.00
2019-04-11T09:49:36.073Z,14992.00
2019-04-11T09:50:34.376Z,15384.00
2019-04-11T09:51:34.341Z,16296.00
2019-04-11T09:52:34.330Z,17824.00
2019-04-11T09:53:34.544Z,18976.00
2019-04-11T09:54:35.116Z,21568.00
2019-04-11T09:55:34.277Z,20768.00
2019-04-11T09:56:36.192Z,21408.00
2019-04-11T09:57:34.725Z,22080.00
2019-04-11T09:58:34.261Z,22368.00
2019-04-11T09:59:34.257Z,22720.00
2019-04-11T10:00:34.755Z,24512.00
2019-04-11T10:01:35.109Z,27968.00
2019-04-11T10:02:35.260Z,25536.00
2019-04-11T10:03:34.574Z,24768.00
2019-04-11T10:04:34.185Z,25152.00
2019-04-11T10:05:34.244Z,25600.00
2019-04-11T10:06:34.432Z,25888.00
2019-04-11T10:07:34.188Z,25824.00
2019-04-11T10:08:35.137Z,26656.00
2019-04-11T10:09:34.135Z,26624.00
2019-04-11T10:10:35.268Z,27936.00
2019-04-11T10:11:34.473Z,30880.00
2019-04-11T10:12:34.111Z,37664.00
2019-04-11T10:13:35.504Z,53664.00
2019-04-11T10:14:34.066Z,49088.00
2019-04-11T10:15:34.053Z,28352.00
2019-04-11T10:16:34.070Z,23904.00
2019-04-11T10:17:34.054Z,19648.00
2019-04-11T10:18:38.496Z,17120.00
2019-04-11T10:19:36.005Z,16168.00
2019-04-11T10:20:34.991Z,15752.00
2019-04-11T10:21:34.121Z,15300.00
2019-04-11T10:22:34.154Z,15076.00
2019-04-11T10:23:34.549Z,15196.00
2019-04-11T10:24:34.674Z,15416.00
2019-04-11T10:25:35.132Z,15596.00
2019-04-11T10:26:34.199Z,15960.00
2019-04-11T10:27:33.949Z,16428.00
2019-04-11T10:28:33.908Z,16992.00
2019-04-11T10:29:34.633Z,17184.00
2019-04-11T10:30:33.915Z,17152.00
2019-04-11T10:31:34.672Z,17248.00
2019-04-11T10:32:35.022Z,17536.00
2019-04-11T10:33:35.072Z,17248.00
2019-04-11T10:34:33.839Z,16832.00
2019-04-11T10:35:34.562Z,16464.00
2019-04-11T10:36:34.836Z,16436.00
2019-04-11T10:37:33.885Z,16864.00
2019-04-11T10:38:33.848Z,17152.00
2019-04-11T10:39:33.795Z,17216.00
2019-04-11T10:40:34.399Z,17312.00
2019-04-11T10:41:33.779Z,17376.00
2019-04-11T10:42:34.939Z,17376.00
2019-04-11T10:43:34.202Z,17600.00
2019-04-11T10:44:34.010Z,17632.00
2019-04-11T10:45:34.413Z,17664.00
2019-04-11T10:46:33.714Z,18144.00
2019-04-11T10:47:33.701Z,21216.00
2019-04-11T10:48:39.294Z,18080.00
2019-04-11T10:49:34.691Z,17728.00
2019-04-11T10:50:34.050Z,17792.00
2019-04-11T10:51:33.860Z,18144.00
2019-04-11T10:52:34.250Z,18656.00
2019-04-11T10:53:33.657Z,19648.00
2019-04-11T10:54:33.627Z,20960.00
2019-04-11T10:55:33.680Z,21728.00
2019-04-11T10:56:34.672Z,22496.00
2019-04-11T10:57:33.589Z,23168.00
2019-04-11T10:58:33.583Z,23904.00
2019-04-11T10:59:34.490Z,25376.00
2019-04-11T11:00:33.593Z,26560.00
2019-04-11T11:01:33.851Z,27232.00
2019-04-11T11:02:33.678Z,29664.00
2019-04-11T11:03:34.071Z,33024.00
2019-04-11T11:04:34.626Z,44448.00
2019-04-11T11:05:34.557Z,86496.00
2019-04-11T11:06:33.714Z,52768.00
2019-04-11T11:07:33.484Z,30720.00
2019-04-11T11:08:33.483Z,25696.00
2019-04-11T11:09:35.349Z,22368.00
2019-04-11T11:10:33.461Z,20288.00
2019-04-11T11:11:34.456Z,19200.00
2019-04-11T11:12:33.434Z,18560.00
2019-04-11T11:13:34.035Z,19072.00
2019-04-11T11:14:34.436Z,21280.00
2019-04-11T11:15:33.762Z,23904.00
2019-04-11T11:16:34.161Z,25184.00
2019-04-11T11:17:54.990Z,26048.00
2019-04-11T11:18:53.969Z,26080.00
2019-04-11T11:19:50.935Z,24896.00
2019-04-11T11:20:39.394Z,23584.00
2019-04-11T11:21:35.648Z,21888.00
2019-04-11T11:22:34.464Z,20704.00
2019-04-11T11:23:33.318Z,20704.00
2019-04-11T11:24:33.732Z,20672.00
2019-04-11T11:25:33.802Z,20000.00
2019-04-11T11:26:33.888Z,19360.00
2019-04-11T11:27:33.274Z,19008.00
2019-04-11T11:28:34.325Z,18464.00
2019-04-11T11:29:33.245Z,17824.00
2019-04-11T11:30:33.257Z,17024.00
2019-04-11T11:31:33.217Z,16232.00
2019-04-11T11:32:33.646Z,15844.00
2019-04-11T11:33:34.104Z,15488.00
2019-04-11T11:34:33.200Z,15044.00
2019-04-11T11:35:37.041Z,14332.00
2019-04-11T11:36:37.511Z,13960.00
2019-04-11T11:37:33.389Z,13652.00
2019-04-11T11:38:33.688Z,13116.00
2019-04-11T11:39:33.460Z,12404.00
2019-04-11T11:40:38.158Z,11892.00
2019-04-11T11:41:34.385Z,11592.00
2019-04-11T11:42:33.108Z,11348.00
2019-04-11T11:43:33.100Z,11240.00
2019-04-11T11:44:33.092Z,11464.00
2019-04-11T11:45:33.269Z,11808.00
2019-04-11T11:46:34.149Z,11820.00
2019-04-11T11:47:35.713Z,11476.00
2019-04-11T11:48:34.038Z,11084.00
2019-04-11T11:49:45.989Z,10852.00
2019-04-11T11:50:34.917Z,10736.00
2019-04-11T11:51:33.288Z,10704.00
2019-04-11T11:52:34.541Z,10812.00
2019-04-11T11:53:33.092Z,10900.00
2019-04-11T11:54:32.974Z,10856.00
2019-04-11T11:55:33.515Z,10796.00
2019-04-11T11:56:34.035Z,10760.00
2019-04-11T11:57:33.050Z,11176.00
2019-04-11T11:58:33.411Z,12228.00
2019-04-11T11:59:32.940Z,13360.00
2019-04-11T12:00:33.338Z,14012.00
2019-04-11T12:01:32.891Z,14204.00
2019-04-11T12:02:32.874Z,14332.00
2019-04-11T12:03:33.081Z,14388.00
2019-04-11T12:04:35.311Z,14328.00
2019-04-11T12:05:32.862Z,13992.00
2019-04-11T12:06:33.371Z,13316.00
2019-04-11T12:07:36.225Z,12652.00
2019-04-11T12:08:32.818Z,11916.00
2019-04-11T12:09:32.812Z,11288.00
2019-04-11T12:10:34.056Z,10772.00
2019-04-11T12:11:32.782Z,10484.00
2019-04-11T12:12:32.764Z,10452.00
2019-04-11T12:13:32.762Z,10584.00
2019-04-11T12:14:33.060Z,10936.00
2019-04-11T12:15:32.955Z,11592.00
2019-04-11T12:16:33.520Z,12628.00
2019-04-11T12:17:36.012Z,13800.00
2019-04-11T12:18:32.946Z,15240.00
2019-04-11T12:19:45.754Z,16712.00
2019-04-11T12:20:34.779Z,18144.00